Time;durP1;ratioP1;P1;durP2;ratioP2;P2;SDS_P1;SDS_P2;PMS_P1;PMS_P2;Temp;Humidity;BMP_temperature;BMP_pressure;BME280_temperature;BME280_humidity;BME280_pressure;Samples;Min_cycle;Max_cycle;Signal;HPM_P1;HPM_P2
2021/06/19 00:01:05;;;;;;;5.05;3.10;;;;;;;21.60;54.66;99912.64;1729897;82;21032;-74
2021/06/19 00:03:32;;;;;;;4.78;2.85;;;;;;;21.58;54.72;99918.69;1727701;82;21124;-75
2021/06/19 00:05:58;;;;;;;7.75;2.75;;;;;;;21.57;54.73;99918.88;1728237;82;20969;-73
2021/06/19 00:08:24;;;;;;;7.78;2.72;;;;;;;21.56;54.78;99922.57;1717743;82;20985;-73
2021/06/19 00:10:53;;;;;;;5.20;2.65;;;;;;;21.55;54.85;99920.40;1724415;82;21002;-73
2021/06/19 00:13:20;;;;;;;6.58;3.05;;;;;;;21.53;54.93;99925.08;1719504;82;21528;-73
2021/06/19 00:15:48;;;;;;;3.80;2.92;;;;;;;21.52;55.01;99916.70;1735069;82;21469;-73
2021/06/19 00:18:14;;;;;;;6.00;3.20;;;;;;;21.50;55.11;99917.88;1719887;82;21016;-73
2021/06/19 00:20:41;;;;;;;5.95;2.80;;;;;;;21.45;55.28;99915.19;1719039;82;20982;-72
2021/06/19 00:23:07;;;;;;;5.28;3.10;;;;;;;21.43;55.27;99915.89;1690660;82;21004;-73
2021/06/19 00:25:33;;;;;;;4.62;3.20;;;;;;;21.41;55.42;99915.22;1719817;82;21012;-73
2021/06/19 00:27:59;;;;;;;5.83;3.05;;;;;;;21.39;55.55;99911.84;1719122;82;21080;-73
2021/06/19 00:30:26;;;;;;;7.50;3.17;;;;;;;21.35;55.63;99906.49;1738892;81;21076;-73
2021/06/19 00:32:53;;;;;;;11.85;3.42;;;;;;;21.33;55.73;99912.57;1740446;82;21017;-73
2021/06/19 00:35:22;;;;;;;9.53;3.40;;;;;;;21.31;55.82;99913.23;1723676;82;20969;-73
2021/06/19 00:37:51;;;;;;;8.13;3.25;;;;;;;21.27;55.92;99911.40;1729579;82;21009;-72
2021/06/19 00:40:19;;;;;;;7.08;3.00;;;;;;;21.26;55.93;99908.89;1724047;82;21018;-72
2021/06/19 00:43:01;;;;;;;6.90;2.98;;;;;;;21.26;56.03;99912.92;1723356;82;21102;-73
2021/06/19 00:45:30;;;;;;;8.70;3.10;;;;;;;21.24;56.11;99903.69;1726460;82;21002;-73
2021/06/19 00:47:57;;;;;;;12.73;3.30;;;;;;;21.23;56.20;99904.70;1727344;82;20965;-73
2021/06/19 00:50:24;;;;;;;5.37;2.90;;;;;;;21.22;56.28;99903.53;1740213;82;21009;-73
2021/06/19 00:52:51;;;;;;;6.75;3.05;;;;;;;21.20;56.39;99908.23;1741789;82;20964;-73
2021/06/19 00:55:19;;;;;;;6.72;2.98;;;;;;;21.15;56.52;99904.74;1743553;82;21044;-73
2021/06/19 00:57:45;;;;;;;12.55;3.20;;;;;;;21.15;56.54;99915.50;1726949;82;21042;-73
2021/06/19 01:00:12;;;;;;;8.03;3.60;;;;;;;21.12;56.62;99903.72;1690552;83;21048;-73
2021/06/19 01:02:39;;;;;;;11.48;3.47;;;;;;;21.13;56.70;99907.27;1727894;81;21065;-73
2021/06/19 01:05:08;;;;;;;7.83;3.10;;;;;;;21.08;56.82;99915.33;1743762;82;21041;-73
2021/06/19 01:07:35;;;;;;;8.03;2.70;;;;;;;21.07;56.91;99911.47;1726669;82;20987;-72
2021/06/19 01:10:01;;;;;;;8.98;3.00;;;;;;;21.12;56.89;99902.37;1716015;82;20970;-73
2021/06/19 01:12:29;;;;;;;8.25;2.92;;;;;;;21.20;56.73;99905.55;1723534;83;21033;-73
2021/06/19 01:14:58;;;;;;;11.25;2.95;;;;;;;21.17;56.78;99900.01;1714455;83;21024;-72
2021/06/19 01:17:24;;;;;;;7.17;2.80;;;;;;;21.16;56.84;99901.53;1724910;82;21012;-72
2021/06/19 01:20:14;;;;;;;8.48;3.00;;;;;;;21.13;56.93;99900.55;1734625;82;20975;-73
2021/06/19 01:22:46;;;;;;;5.97;2.70;;;;;;;21.10;57.04;99901.70;1743438;82;21069;-73
2021/06/19 01:25:23;;;;;;;7.87;3.00;;;;;;;21.05;57.24;99898.20;1730028;82;21029;-74
2021/06/19 01:27:53;;;;;;;8.35;3.20;;;;;;;20.70;57.46;99855.95;1732272;82;21089;-72
2021/06/19 01:30:25;;;;;;;5.58;2.77;;;;;;;20.93;57.75;99890.16;1723797;82;21084;-74
2021/06/19 01:32:51;;;;;;;7.25;2.77;;;;;;;20.87;57.92;99898.91;1733215;82;20981;-73
2021/06/19 01:35:17;;;;;;;7.58;2.80;;;;;;;20.88;58.08;99887.16;1735665;82;21008;-73
2021/06/19 01:37:49;;;;;;;6.55;2.70;;;;;;;20.92;57.83;99896.55;1718632;82;20949;-73
2021/06/19 01:40:20;;;;;;;5.75;2.52;;;;;;;20.90;57.83;99894.55;1730108;82;21401;-73
2021/06/19 01:42:48;;;;;;;5.28;2.65;;;;;;;20.88;57.91;99899.25;1723480;82;21084;-74
2021/06/19 01:45:25;;;;;;;8.58;2.80;;;;;;;20.86;57.96;99897.26;1723381;82;21084;-73
2021/06/19 01:47:52;;;;;;;10.50;2.90;;;;;;;20.85;58.02;99898.27;1729990;82;21071;-73
2021/06/19 01:50:23;;;;;;;6.60;2.90;;;;;;;20.84;58.02;99897.41;1720189;82;21028;-73
2021/06/19 01:52:51;;;;;;;3.55;2.58;;;;;;;20.85;57.99;99896.40;1730883;82;21000;-73
2021/06/19 01:55:19;;;;;;;5.78;2.77;;;;;;;20.85;58.03;99898.27;1740074;82;22407;-74
2021/06/19 01:57:46;;;;;;;4.92;2.90;;;;;;;20.85;58.05;99899.61;1735115;82;20985;-72
2021/06/19 02:00:24;;;;;;;4.40;2.58;;;;;;;20.83;58.07;99891.72;1703485;82;21033;-73
2021/06/19 02:02:51;;;;;;;5.03;2.15;;;;;;;20.84;58.05;99896.58;1694167;83;21080;-73
2021/06/19 02:05:19;;;;;;;5.25;2.42;;;;;;;20.89;57.96;99891.02;1671613;83;21071;-73
2021/06/19 02:07:50;;;;;;;6.80;2.92;;;;;;;21.03;57.63;99892.16;1679041;85;21498;-73
2021/06/19 02:10:22;;;;;;;11.97;3.22;;;;;;;21.03;57.60;99890.80;1721238;83;21549;-73
2021/06/19 02:12:48;;;;;;;7.55;3.08;;;;;;;20.98;57.63;99891.83;1726798;83;21481;-73
2021/06/19 02:15:18;;;;;;;8.83;2.70;;;;;;;20.95;57.64;99893.53;1709405;84;21549;-73
2021/06/19 02:17:45;;;;;;;9.68;3.00;;;;;;;20.95;57.73;99894.36;1709890;84;21057;-73
2021/06/19 02:20:17;;;;;;;6.35;2.80;;;;;;;20.95;57.68;99898.91;1679028;84;21005;-73
2021/06/19 02:22:43;;;;;;;8.30;3.30;;;;;;;20.96;57.71;99896.56;1712725;83;20993;-73
2021/06/19 02:25:13;;;;;;;10.53;3.02;;;;;;;20.96;57.72;99904.63;1714018;83;21092;-73
2021/06/19 02:27:57;;;;;;;7.95;3.00;;;;;;;20.96;57.67;99897.91;1717168;83;20970;-73
2021/06/19 02:30:31;;;;;;;5.62;2.55;;;;;;;20.97;57.69;99891.48;1724169;82;21013;-74
2021/06/19 02:32:57;;;;;;;9.45;2.72;;;;;;;20.97;57.71;99900.90;1716905;82;21080;-74
2021/06/19 02:35:27;;;;;;;7.53;3.08;;;;;;;20.99;57.78;99900.23;1733168;83;21081;-74
2021/06/19 02:37:56;;;;;;;7.83;2.83;;;;;;;21.02;57.76;99906.59;1715872;83;20969;-74
2021/06/19 02:40:22;;;;;;;6.47;2.58;;;;;;;21.04;57.73;99904.59;1705754;83;21505;-74
2021/06/19 02:42:49;;;;;;;7.20;2.77;;;;;;;21.17;57.54;99909.94;1703033;84;21128;-73
2021/06/19 02:45:15;;;;;;;8.63;3.05;;;;;;;21.28;57.29;99908.22;1724067;83;21049;-73
2021/06/19 02:47:46;;;;;;;4.75;2.80;;;;;;;21.28;57.32;99907.70;1726022;82;20974;-74
2021/06/19 02:50:13;;;;;;;11.53;2.92;;;;;;;21.28;57.26;99914.42;1699592;83;21036;-74
2021/06/19 02:52:43;;;;;;;10.38;3.08;;;;;;;21.28;57.21;99913.60;1692255;83;20989;-74
2021/06/19 02:55:19;;;;;;;6.55;2.62;;;;;;;21.27;57.19;99907.88;1732912;83;21037;-74
2021/06/19 02:57:46;;;;;;;4.62;2.90;;;;;;;21.28;57.08;99912.26;1722542;83;21048;-74
2021/06/19 03:00:16;;;;;;;3.25;2.30;;;;;;;21.27;57.20;99911.40;1707473;83;21643;-74
2021/06/19 03:02:43;;;;;;;5.62;2.60;;;;;;;21.28;57.19;99917.63;1675596;84;21646;-74
2021/06/19 03:05:12;;;;;;;3.52;2.67;;;;;;;21.30;57.11;99910.21;1690471;83;21020;-73
2021/06/19 03:07:38;;;;;;;4.67;2.50;;;;;;;21.33;57.05;99912.57;1702800;83;21493;-75
2021/06/19 03:10:06;;;;;;;3.67;2.40;;;;;;;21.36;57.08;99916.77;1713340;83;21084;-75
2021/06/19 03:12:33;;;;;;;4.67;2.60;;;;;;;21.36;57.05;99910.87;1704025;83;21028;-72
2021/06/19 03:14:59;;;;;;;5.97;2.70;;;;;;;21.37;57.04;99913.89;1703893;84;21029;-73
2021/06/19 03:17:25;;;;;;;5.40;2.55;;;;;;;21.39;56.92;99917.23;1699592;83;21009;-74
2021/06/19 03:19:53;;;;;;;6.08;2.62;;;;;;;21.40;56.98;99914.88;1692614;83;21553;-73
2021/06/19 03:22:19;;;;;;;4.17;2.40;;;;;;;21.40;56.85;99914.88;1706683;83;21124;-73
2021/06/19 03:24:46;;;;;;;6.35;2.58;;;;;;;21.41;56.87;99920.59;1731034;83;20982;-73
2021/06/19 03:27:14;;;;;;;4.85;2.60;;;;;;;21.42;56.97;99922.77;1732180;83;21076;-73
2021/06/19 03:29:42;;;;;;;9.55;2.70;;;;;;;21.38;57.04;99920.95;1725065;81;21134;-72
2021/06/19 03:32:08;;;;;;;7.70;3.40;;;;;;;21.47;56.96;99920.42;1718231;82;20982;-72
2021/06/19 03:34:37;;;;;;;8.23;3.40;;;;;;;21.49;56.80;99926.97;1717490;83;21731;-72
2021/06/19 03:37:05;;;;;;;6.22;2.85;;;;;;;21.53;56.65;99930.98;1725554;83;20953;-72
2021/06/19 03:39:35;;;;;;;5.53;2.60;;;;;;;21.56;56.49;99933.33;1722154;82;21056;-74
2021/06/19 03:42:04;;;;;;;5.60;2.77;;;;;;;21.58;56.57;99932.66;1718066;82;21608;-72
2021/06/19 03:44:30;;;;;;;6.95;3.15;;;;;;;21.60;56.53;99933.34;1711995;84;21053;-72
2021/06/19 03:46:58;;;;;;;8.98;3.35;;;;;;;21.63;56.60;99934.32;1715573;82;21004;-73
2021/06/19 03:49:25;;;;;;;7.67;2.80;;;;;;;21.67;56.46;99932.13;1720308;82;21013;-73
2021/06/19 03:51:51;;;;;;;8.15;3.47;;;;;;;21.72;56.44;99938.64;1733875;82;20981;-72
2021/06/19 03:54:19;;;;;;;4.30;2.90;;;;;;;21.75;56.37;99932.92;1738257;82;21096;-72
2021/06/19 03:56:46;;;;;;;6.72;2.92;;;;;;;21.82;56.38;99938.95;1738187;82;21536;-71
2021/06/19 03:59:12;;;;;;;7.40;3.00;;;;;;;21.92;56.11;99930.14;1720151;82;21619;-72
2021/06/19 04:01:42;;;;;;;7.37;2.87;;;;;;;22.02;56.03;99932.58;1720131;82;21588;-72
2021/06/19 04:04:09;;;;;;;4.42;2.92;;;;;;;22.15;55.89;99934.69;1714463;83;21021;-72
2021/06/19 04:06:37;;;;;;;9.48;3.12;;;;;;;22.27;55.76;99935.95;1716603;83;21029;-72
2021/06/19 04:09:04;;;;;;;4.28;2.67;;;;;;;22.39;55.62;99943.13;1730338;83;21454;-74
2021/06/19 04:11:30;;;;;;;4.87;3.10;;;;;;;22.53;55.24;99934.77;1726650;82;21037;-74
2021/06/19 04:13:58;;;;;;;3.98;2.70;;;;;;;22.81;54.68;99932.31;1700951;83;21032;-74
2021/06/19 04:16:24;;;;;;;4.30;2.80;;;;;;;23.34;53.55;99932.81;1718546;83;21045;-72
2021/06/19 04:18:50;;;;;;;5.83;3.40;;;;;;;23.82;52.67;99934.52;1723635;82;21013;-71
2021/06/19 04:21:17;;;;;;;7.15;2.90;;;;;;;24.45;50.96;99938.02;1713662;83;21029;-74
2021/06/19 04:23:43;;;;;;;4.30;2.85;;;;;;;24.91;49.97;99936.75;1736066;82;21017;-73
2021/06/19 04:26:10;;;;;;;9.30;2.85;;;;;;;25.16;49.18;99945.73;1736537;82;21583;-73
2021/06/19 04:28:38;;;;;;;8.30;2.80;;;;;;;25.33;48.74;99938.13;1736309;82;21493;-73
2021/06/19 04:31:04;;;;;;;6.15;2.90;;;;;;;25.40;48.31;99939.53;1711804;83;21024;-73
2021/06/19 04:33:30;;;;;;;6.05;3.00;;;;;;;25.22;48.55;99936.83;1709521;84;21040;-73
2021/06/19 04:35:57;;;;;;;7.78;2.75;;;;;;;24.98;49.12;99938.95;1681768;85;21504;-73
2021/06/19 04:38:25;;;;;;;6.17;2.65;;;;;;;24.81;49.39;99931.67;1689940;84;21552;-73
2021/06/19 04:41:05;;;;;;;8.93;2.80;;;;;;;24.66;49.61;99929.59;1679715;85;21044;-73
2021/06/19 04:43:33;;;;;;;8.73;3.00;;;;;;;24.66;49.65;99933.11;1676578;85;21041;-73
2021/06/19 04:45:57;;;;;;;18.55;4.03;;;;;;;24.90;49.51;99932.86;1677308;84;21022;-73
2021/06/19 04:48:24;;;;;;;12.80;3.20;;;;;;;24.95;49.18;99942.08;1679228;85;21048;-73
2021/06/19 04:50:52;;;;;;;6.92;2.67;;;;;;;24.81;49.63;99938.44;1683499;85;21069;-73
2021/06/19 04:53:18;;;;;;;3.92;2.60;;;;;;;24.75;49.81;99941.09;1640305;85;21052;-73
2021/06/19 04:55:45;;;;;;;11.18;3.10;;;;;;;24.96;49.67;99938.84;1685815;84;21040;-73
2021/06/19 04:58:12;;;;;;;6.00;2.70;;;;;;;25.11;49.21;99938.73;1681125;84;20990;-74
2021/06/19 05:00:39;;;;;;;6.22;2.80;;;;;;;25.48;48.79;99938.84;1682441;84;21032;-73
2021/06/19 05:03:06;;;;;;;5.40;2.40;;;;;;;25.89;48.21;99938.48;1668783;85;21152;-74
2021/06/19 05:05:35;;;;;;;30.02;4.72;;;;;;;26.27;47.14;99942.58;1677324;84;21057;-73
2021/06/19 05:08:03;;;;;;;13.28;3.00;;;;;;;26.29;46.36;99927.77;1674981;85;21086;-74
2021/06/19 05:10:30;;;;;;;8.93;3.22;;;;;;;26.38;46.72;99924.84;1685858;85;21034;-74
2021/06/19 05:12:57;;;;;;;9.78;2.72;;;;;;;26.77;45.75;99932.17;1682158;85;20993;-75
2021/06/19 05:15:26;;;;;;;5.10;2.80;;;;;;;27.12;45.58;99932.42;1682076;85;20993;-75
2021/06/19 05:17:54;;;;;;;9.15;3.35;;;;;;;27.36;45.13;99921.93;1677293;85;21003;-75
2021/06/19 05:20:20;;;;;;;11.80;3.00;;;;;;;27.42;44.52;99924.64;1686544;84;21027;-75
2021/06/19 05:22:47;;;;;;;5.92;2.60;;;;;;;27.57;43.95;99921.67;1674744;84;21051;-74
2021/06/19 05:25:14;;;;;;;18.75;3.47;;;;;;;27.83;43.74;99925.30;1685736;85;21004;-73
2021/06/19 05:27:41;;;;;;;6.83;2.58;;;;;;;28.13;43.34;99924.72;1682572;85;21030;-74
2021/06/19 05:30:10;;;;;;;10.10;2.80;;;;;;;28.33;42.70;99934.64;1683906;84;21005;-74
2021/06/19 05:32:36;;;;;;;8.20;3.15;;;;;;;28.47;42.61;99936.70;1679698;84;21594;-74
2021/06/19 05:35:03;;;;;;;6.60;2.90;;;;;;;28.55;42.35;99926.92;1671900;84;22253;-74
2021/06/19 05:37:30;;;;;;;10.35;2.85;;;;;;;28.67;42.22;99924.34;1680723;84;21095;-74
2021/06/19 05:39:57;;;;;;;5.55;2.52;;;;;;;28.72;42.18;99928.58;1676015;84;21021;-73
2021/06/19 05:42:23;;;;;;;11.08;2.65;;;;;;;28.74;41.70;99931.92;1668210;85;21592;-73
2021/06/19 05:44:50;;;;;;;7.85;2.70;;;;;;;28.73;41.63;99923.45;1673889;84;20962;-73
2021/06/19 05:47:17;;;;;;;5.92;3.30;;;;;;;28.79;41.77;99930.72;1684415;84;21029;-75
2021/06/19 05:49:44;;;;;;;9.28;3.45;;;;;;;28.90;41.85;99934.58;1697187;84;21036;-74
2021/06/19 05:52:10;;;;;;;15.13;3.10;;;;;;;28.92;41.54;99937.92;1673549;84;21020;-74
2021/06/19 05:54:38;;;;;;;6.12;2.75;;;;;;;28.81;41.70;99938.66;1668351;85;21560;-74
2021/06/19 05:57:06;;;;;;;8.83;2.95;;;;;;;28.70;41.78;99931.53;1667811;85;21053;-75
2021/06/19 05:59:34;;;;;;;8.23;2.90;;;;;;;28.68;41.94;99935.53;1667863;86;21112;-74
2021/06/19 06:02:03;;;;;;;5.20;2.70;;;;;;;28.72;41.84;99932.66;1673526;84;21061;-76
2021/06/19 06:04:28;;;;;;;24.02;4.28;;;;;;;28.74;41.79;99927.84;1683954;84;21028;-75
2021/06/19 06:06:54;;;;;;;5.25;2.72;;;;;;;28.72;42.01;99940.83;1697660;84;21033;-74
2021/06/19 06:09:21;;;;;;;8.30;2.90;;;;;;;28.66;41.80;99930.80;1697872;84;21029;-75
2021/06/19 06:11:47;;;;;;;7.58;2.80;;;;;;;28.54;42.09;99939.67;1697445;84;21115;-76
2021/06/19 06:14:14;;;;;;;5.55;2.40;;;;;;;28.51;42.37;99944.75;1695370;84;21048;-74
2021/06/19 06:16:40;;;;;;;9.78;2.77;;;;;;;28.54;42.67;99941.58;1675339;84;21048;-75
2021/06/19 06:19:07;;;;;;;5.80;2.92;;;;;;;28.58;42.83;99945.52;1676704;84;21021;-75
2021/06/19 06:21:33;;;;;;;6.58;2.80;;;;;;;28.67;42.82;99944.74;1667801;84;20984;-74
2021/06/19 06:24:00;;;;;;;7.17;3.02;;;;;;;28.70;42.39;99938.88;1689479;84;21056;-75
2021/06/19 06:26:26;;;;;;;8.63;3.05;;;;;;;28.72;42.31;99938.95;1697558;84;20998;-76
2021/06/19 06:28:53;;;;;;;8.43;3.02;;;;;;;28.71;42.11;99944.59;1681822;84;21148;-76
2021/06/19 06:31:19;;;;;;;7.40;2.90;;;;;;;28.58;42.36;99953.16;1692360;84;21012;-75
2021/06/19 06:33:47;;;;;;;12.47;3.35;;;;;;;28.44;42.37;99946.14;1696265;84;21068;-76
2021/06/19 06:36:13;;;;;;;7.37;2.62;;;;;;;28.39;43.15;99944.11;1711875;83;20977;-78
2021/06/19 06:38:40;;;;;;;10.10;2.92;;;;;;;28.45;43.24;99945.09;1711350;83;21044;-76
2021/06/19 06:41:06;;;;;;;9.48;2.80;;;;;;;28.54;43.25;99942.94;1710790;82;21079;-75
2021/06/19 06:43:33;;;;;;;10.98;3.50;;;;;;;28.62;42.81;99944.04;1709179;84;21012;-77
2021/06/19 06:46:00;;;;;;;17.65;4.00;;;;;;;28.66;42.33;99930.80;1711200;84;21048;-76
2021/06/19 06:48:29;;;;;;;5.90;2.72;;;;;;;28.60;42.58;99930.63;1712230;84;21037;-75
2021/06/19 06:50:57;;;;;;;7.53;2.85;;;;;;;28.63;42.68;99931.25;1714475;84;21024;-76
2021/06/19 06:53:24;;;;;;;11.90;2.83;;;;;;;28.68;42.71;99934.17;1718906;82;21036;-75
2021/06/19 06:55:50;;;;;;;8.88;3.00;;;;;;;28.73;42.80;99932.97;1738733;82;21028;-75
2021/06/19 06:58:16;;;;;;;8.18;2.98;;;;;;;28.85;42.48;99938.00;1724317;82;21068;-75
2021/06/19 07:00:42;;;;;;;9.13;3.15;;;;;;;28.89;42.22;99941.93;1729770;81;21147;-76
2021/06/19 07:03:09;;;;;;;18.57;3.70;;;;;;;28.95;42.29;99936.09;1713745;83;21090;-75
2021/06/19 07:05:36;;;;;;;6.40;2.80;;;;;;;28.94;42.10;99935.82;1712411;83;21072;-77
2021/06/19 07:08:03;;;;;;;10.13;3.40;;;;;;;28.94;42.14;99936.64;1716818;82;21060;-76
2021/06/19 07:10:30;;;;;;;7.25;3.65;;;;;;;28.92;42.17;99931.94;1712459;83;21666;-76
2021/06/19 07:12:56;;;;;;;4.92;2.60;;;;;;;28.86;42.30;99934.73;1732352;82;21040;-79
2021/06/19 07:15:22;;;;;;;7.83;2.87;;;;;;;28.85;42.37;99928.98;1741540;81;21012;-78
2021/06/19 07:17:49;;;;;;;11.00;4.00;;;;;;;28.85;42.32;99933.06;1712368;83;21013;-79
2021/06/19 07:20:16;;;;;;;8.35;3.10;;;;;;;28.92;43.36;99934.66;1712169;84;21028;-78
2021/06/19 07:22:43;;;;;;;11.35;5.20;;;;;;;29.09;43.05;99932.72;1713142;84;21044;-77
2021/06/19 07:25:12;;;;;;;20.97;4.22;;;;;;;29.18;42.39;99931.35;1708159;84;21514;-79
2021/06/19 07:27:40;;;;;;;11.88;4.33;;;;;;;29.16;42.20;99930.77;1710585;83;21079;-79
2021/06/19 07:30:09;;;;;;;10.93;3.60;;;;;;;29.10;42.74;99933.84;1728471;82;21060;-78
2021/06/19 07:32:36;;;;;;;11.40;3.90;;;;;;;29.12;42.44;99939.59;1717464;82;21052;-79
2021/06/19 07:35:04;;;;;;;6.60;3.27;;;;;;;29.09;42.02;99940.88;1728766;82;21149;-78
2021/06/19 07:37:30;;;;;;;16.52;3.62;;;;;;;28.99;42.43;99939.21;1711420;83;21048;-79
2021/06/19 07:39:59;;;;;;;8.40;3.40;;;;;;;28.92;42.82;99940.11;1736725;80;21091;-76
2021/06/19 07:42:25;;;;;;;14.28;3.55;;;;;;;28.97;43.11;99937.27;1679037;84;21564;-78
2021/06/19 07:47:42;;;;;;;9.60;3.10;;;;;;;28.97;42.82;99937.27;1782134;79;22951;-79
2021/06/19 07:50:09;;;;;;;9.40;3.20;;;;;;;28.92;42.83;99933.84;1758035;81;21036;-76
2021/06/19 07:52:36;;;;;;;8.88;3.20;;;;;;;28.90;42.95;99939.52;1750875;81;21028;-75
2021/06/19 07:55:03;;;;;;;8.20;3.02;;;;;;;28.86;42.82;99939.63;1758879;81;21079;-75
2021/06/19 07:57:30;;;;;;;9.13;3.27;;;;;;;28.76;43.08;99933.88;1759144;81;21024;-76
2021/06/19 07:59:57;;;;;;;22.60;4.47;;;;;;;28.70;43.42;99934.25;1739174;82;21048;-74
2021/06/19 08:02:24;;;;;;;16.40;4.00;;;;;;;28.72;43.58;99936.74;1716080;83;21061;-75
2021/06/19 08:04:50;;;;;;;7.42;3.60;;;;;;;28.68;44.08;99930.09;1691735;83;21028;-77
2021/06/19 08:07:17;;;;;;;17.85;4.40;;;;;;;28.67;44.27;99921.61;1697664;83;21036;-74
2021/06/19 08:09:45;;;;;;;14.05;4.08;;;;;;;28.69;44.18;99916.80;1681009;85;21045;-75
2021/06/19 08:12:13;;;;;;;11.05;3.80;;;;;;;28.73;44.51;99927.53;1671666;85;21049;-77
2021/06/19 08:14:39;;;;;;;10.93;3.90;;;;;;;28.79;44.70;99914.39;1665043;84;21012;-76
2021/06/19 08:17:15;;;;;;;9.30;4.25;;;;;;;28.76;44.33;99914.83;1663200;85;21219;-75
2021/06/19 08:19:37;;;;;;;6.00;3.70;;;;;;;28.65;44.74;99917.73;1672644;85;21107;-75
2021/06/19 08:22:05;;;;;;;6.75;3.25;;;;;;;28.61;44.78;99919.23;1682966;84;21040;-75
2021/06/19 08:24:31;;;;;;;10.35;3.50;;;;;;;28.50;44.58;99915.34;1661657;85;21030;-74
2021/06/19 08:26:58;;;;;;;11.03;3.42;;;;;;;28.41;44.69;99912.59;1676773;84;21088;-75
2021/06/19 08:29:24;;;;;;;10.40;3.77;;;;;;;28.35;44.92;99902.60;1661752;85;21131;-76
2021/06/19 08:31:51;;;;;;;46.15;6.50;;;;;;;28.38;45.19;99908.44;1669698;85;21042;-75
2021/06/19 08:34:18;;;;;;;7.83;4.35;;;;;;;28.44;44.53;99910.27;1691422;84;20988;-76
2021/06/19 08:36:44;;;;;;;10.72;4.00;;;;;;;28.37;44.22;99901.87;1677740;84;21018;-74
2021/06/19 08:39:10;;;;;;;42.60;6.85;;;;;;;28.22;44.84;99901.64;1677570;85;21070;-75
2021/06/19 08:41:37;;;;;;;14.35;4.70;;;;;;;28.22;45.34;99898.92;1676635;85;21143;-74
2021/06/19 08:44:04;;;;;;;12.45;4.50;;;;;;;28.27;44.72;99909.15;1679859;84;21064;-74
2021/06/19 08:46:30;;;;;;;25.02;5.28;;;;;;;28.30;44.56;99900.56;1661675;85;21574;-74
2021/06/19 08:48:57;;;;;;;10.48;4.03;;;;;;;28.28;45.18;99908.92;1645549;86;21093;-74
2021/06/19 08:51:25;;;;;;;8.48;4.15;;;;;;;28.27;45.09;99899.63;1655573;85;21054;-74
2021/06/19 08:53:51;;;;;;;11.25;3.83;;;;;;;28.22;45.36;99901.64;1642557;86;21562;-74
2021/06/19 08:56:20;;;;;;;5.58;3.42;;;;;;;28.22;45.70;99907.63;1641460;86;21074;-75
2021/06/19 08:58:47;;;;;;;9.05;3.85;;;;;;;28.25;45.89;99897.14;1662040;85;21186;-75
2021/06/19 09:01:14;;;;;;;10.05;3.90;;;;;;;28.32;44.94;99898.98;1670592;85;21123;-75
2021/06/19 09:03:41;;;;;;;126.55;13.75;;;;;;;28.40;44.39;99894.61;1661526;85;21063;-75
2021/06/19 09:06:26;;;;;;;6.85;3.83;;;;;;;28.49;45.31;99896.53;1668462;86;21066;-75
2021/06/19 09:09:07;;;;;;;64.27;8.13;;;;;;;28.60;45.38;99889.83;1662637;84;21070;-73
2021/06/19 09:11:46;;;;;;;11.90;3.80;;;;;;;28.70;45.33;99891.26;1663334;85;21040;-74
2021/06/19 09:14:22;;;;;;;10.65;4.10;;;;;;;28.82;44.77;99892.70;1644339;86;21101;-74
2021/06/19 09:16:59;;;;;;;7.67;4.05;;;;;;;28.83;43.85;99896.55;1638588;87;21085;-75
2021/06/19 09:19:39;;;;;;;12.60;4.67;;;;;;;28.74;44.23;99889.20;1673755;84;21107;-71
2021/06/19 09:22:21;;;;;;;12.25;4.15;;;;;;;28.69;44.83;99886.87;1679541;84;21056;-74
2021/06/19 09:24:57;;;;;;;11.43;4.00;;;;;;;28.60;45.28;99877.58;1674047;84;21034;-74
2021/06/19 09:27:36;;;;;;;26.45;4.97;;;;;;;28.45;44.97;99856.70;1697022;83;21115;-76
2021/06/19 09:30:20;;;;;;;17.82;4.42;;;;;;;28.72;44.00;99890.48;1658823;85;21097;-75
2021/06/19 09:32:55;;;;;;;10.08;3.92;;;;;;;28.75;44.66;99877.81;1658031;85;21663;-74
2021/06/19 09:35:41;;;;;;;11.05;4.05;;;;;;;28.82;44.81;99885.36;1657277;85;21020;-74
2021/06/19 09:38:13;;;;;;;7.35;3.83;;;;;;;28.80;44.66;99882.05;1672585;84;22182;-73
2021/06/19 09:40:48;;;;;;;15.60;4.30;;;;;;;28.70;45.12;99880.38;1655836;86;21069;-74
2021/06/19 09:43:23;;;;;;;7.87;3.90;;;;;;;28.67;45.43;99886.25;1679181;84;21040;-73
2021/06/19 09:46:09;;;;;;;8.30;3.62;;;;;;;28.71;44.53;99869.77;1677769;82;21077;-74
2021/06/19 09:48:39;;;;;;;10.68;3.83;;;;;;;28.82;44.10;99871.75;1693918;83;21572;-74
2021/06/19 09:51:21;;;;;;;13.40;4.25;;;;;;;28.91;44.54;99871.78;1691784;83;21024;-75
2021/06/19 09:54:05;;;;;;;17.23;9.35;;;;;;;29.06;44.65;99866.48;1685874;83;21416;-74
2021/06/19 09:56:52;;;;;;;7.70;4.95;;;;;;;29.19;44.35;99862.22;1688680;83;21111;-74
2021/06/19 09:59:34;;;;;;;6.87;3.60;;;;;;;29.20;44.46;99866.61;1694953;83;21064;-73
2021/06/19 10:02:03;;;;;;;12.00;4.08;;;;;;;29.20;44.12;99859.80;1632444;88;21151;-75
2021/06/19 10:04:31;;;;;;;7.10;3.83;;;;;;;29.21;44.54;99868.83;1634071;86;21006;-74
2021/06/19 10:06:58;;;;;;;12.37;4.33;;;;;;;29.21;43.87;99854.67;1687135;83;20997;-74
2021/06/19 10:09:26;;;;;;;8.48;3.50;;;;;;;29.24;44.59;99854.20;1697537;83;21062;-76
2021/06/19 10:11:55;;;;;;;12.43;3.90;;;;;;;29.33;43.88;99850.67;1706721;83;21572;-75
2021/06/19 10:14:24;;;;;;;11.25;3.62;;;;;;;29.47;44.52;99847.23;1701039;84;20984;-75
2021/06/19 10:16:53;;;;;;;5.75;3.70;;;;;;;29.61;44.03;99840.27;1700636;83;22432;-75
2021/06/19 10:19:23;;;;;;;12.78;3.60;;;;;;;29.68;43.27;99847.79;1693073;83;21127;-75
2021/06/19 10:21:54;;;;;;;23.87;4.47;;;;;;;29.68;43.34;99847.79;1693182;83;21638;-75
2021/06/19 10:24:25;;;;;;;;;;;;;;;29.61;42.19;99847.89;1708933;83;21049;-74
2021/06/19 10:26:53;;;;;;;13.60;4.28;;;;;;;29.45;42.98;99846.63;1706232;83;20259;-75
2021/06/19 10:32:06;;;;;;;14.15;3.83;;;;;;;29.12;44.19;99847.03;1684322;83;21076;-74
2021/06/19 10:34:34;;;;;;;9.40;3.72;;;;;;;29.04;43.62;99838.12;1659934;85;21052;-79
2021/06/19 10:37:04;;;;;;;9.45;3.37;;;;;;;28.99;44.22;99827.60;1693067;85;21056;-78
2021/06/19 10:39:43;;;;;;;11.50;3.77;;;;;;;28.98;44.28;99838.19;1687954;83;21083;-77
2021/06/19 10:42:31;;;;;;;10.13;3.60;;;;;;;29.00;44.32;99830.63;1684271;83;21058;-78
2021/06/19 10:45:04;;;;;;;8.95;3.52;;;;;;;28.98;44.05;99838.19;1686655;83;21020;-77
2021/06/19 10:47:35;;;;;;;7.90;3.45;;;;;;;28.93;43.68;99834.80;1683219;83;21018;-78
2021/06/19 10:50:05;;;;;;;20.48;4.10;;;;;;;28.91;42.83;99828.23;1686261;84;21632;-78
2021/06/19 10:52:38;;;;;;;10.93;3.60;;;;;;;29.00;42.55;99838.80;1723002;82;21048;-79
2021/06/19 10:55:16;;;;;;;11.80;3.42;;;;;;;29.11;42.11;99835.31;1705107;83;21012;-79
2021/06/19 10:57:46;;;;;;;11.03;3.92;;;;;;;29.25;42.46;99830.54;1716946;83;21068;-80
2021/06/19 11:00:38;;;;;;;31.65;4.97;;;;;;;29.39;41.85;99833.95;1718898;83;21083;-81
2021/06/19 11:03:09;;;;;;;7.67;3.42;;;;;;;29.43;42.11;99831.06;1713500;82;21017;-80
2021/06/19 11:05:47;;;;;;;12.43;3.40;;;;;;;29.45;41.93;99845.27;1715051;83;21052;-79
2021/06/19 11:08:14;;;;;;;10.32;3.40;;;;;;;29.46;41.64;99838.77;1684965;83;21088;-79
2021/06/19 11:10:50;;;;;;;12.13;3.40;;;;;;;29.34;42.18;99840.63;1656384;86;21088;-79
2021/06/19 11:13:34;;;;;;;15.03;4.25;;;;;;;29.44;42.41;99839.55;1684748;84;20996;-77
2021/06/19 11:16:06;;;;;;;9.45;4.00;;;;;;;29.54;41.78;99849.35;1689451;84;21600;-77
2021/06/19 11:18:53;;;;;;;10.38;3.22;;;;;;;29.55;41.80;99842.84;1721964;82;21611;-79
2021/06/19 11:21:34;;;;;;;27.07;4.42;;;;;;;29.58;41.62;99840.19;1720165;83;21519;-77
2021/06/19 11:24:06;;;;;;;23.52;4.50;;;;;;;29.57;41.40;99833.89;1715501;82;21069;-77
2021/06/19 11:26:50;;;;;;;18.15;3.55;;;;;;;29.54;41.68;99829.44;1731990;82;21056;-78
2021/06/19 11:29:42;;;;;;;31.77;5.22;;;;;;;29.51;41.84;99842.98;1721521;83;21040;-79
2021/06/19 11:32:35;;;;;;;8.05;3.50;;;;;;;29.49;41.82;99844.28;1720552;82;21089;-79
2021/06/19 11:35:06;;;;;;;16.10;3.87;;;;;;;29.46;42.04;99836.58;1675260;85;21089;-79
2021/06/19 11:37:56;;;;;;;8.58;3.60;;;;;;;29.39;42.29;99832.59;1632549;86;21499;-78
2021/06/19 11:40:30;;;;;;;8.63;2.95;;;;;;;29.48;42.42;99839.38;1721376;82;21032;-78
2021/06/19 11:42:57;;;;;;;17.70;4.53;;;;;;;29.60;42.67;99832.59;1729450;82;21065;-79
2021/06/19 11:45:24;;;;;;;9.10;3.22;;;;;;;29.73;42.66;99830.20;1699983;83;21017;-78
2021/06/19 11:48:14;;;;;;;26.85;4.33;;;;;;;29.84;42.61;99821.23;1641012;86;21032;-79